< < Back
Terminal Aerodrome Forecast


Current Version              Previous Versions:   1  2  3  4  5  6  7  8  9  

Terminal Aerodrome Forecast

368
FTUS44 KBMX 291100
TAFTCL
TAF
KTCL 291120Z 2912/3012 00000KT P6SM FEW250
     FM291500 18005KT P6SM SCT070 BKN250=



Latest METAR

857
SAUS70 KWBC 300400 RRC
MTRTCL
METAR KTCL 300353Z AUTO 00000KT 10SM CLR 24/21 A3003 RMK AO2 SLP166
T02390206


USA.gov is the U.S. government's official web portal to all federal, state and local government web resources and services.